<?xml version="1.0" encoding="UTF-8" standalone="no" ?>
<gpx xmlns="http://www.topografix.com/GPX/1/1" xmlns:xsi="http://www.w3.org/2001/XMLSchema-instance" xsi:schemaLocation="http://www.topografix.com/GPX/1/1 http://www.topografix.com/GPX/1/1/gpx.xsd" version="1.1" creator="VisuGPX - https://www.visugpx.com">
  <metadata>
    <name>Traversée Belledonne </name>
    <desc><![CDATA[
[b]Traversée Belledonne [/b]effectuée entre le col du Cucheron et Chamrousse . Durée : 4,5 jours en Juin 2017.

Contient pas mal de [b]hors sentier[/b].

[b]Attention la descente du Rocher Blanc[/b] par le [b]col de l'Amiante[/b] vers les lacs des 7 laux est[b] exposée[/b]... [b]Je ne repasserai plus par là !![/b]]]></desc>
  </metadata>
  <trk>
    <name><![CDATA[J0]]></name>
    <trkseg>
      <trkpt lat="45.4592" lon="6.22775">
        <ele>1523</ele>
        <time>2010-01-01T00:00:00Z</time>
      </trkpt>
      <trkpt lat="45.4592" lon="6.22771">
        <ele>1524</ele>
        <time>2010-01-01T00:00:00Z</time>
      </trkpt>
      <trkpt lat="45.45933" lon="6.22775">
        <ele>1524</ele>
        <time>2010-01-01T00:00:03Z</time>
      </trkpt>
      <trkpt lat="45.45921" lon="6.22754">
        <ele>1528</ele>
        <time>2010-01-01T00:00:08Z</time>
      </trkpt>
      <trkpt lat="45.45884" lon="6.22714">
        <ele>1532</ele>
        <time>2010-01-01T00:00:20Z</time>
      </trkpt>
      <trkpt lat="45.45861" lon="6.22686">
        <ele>1535</ele>
        <time>2010-01-01T00:00:27Z</time>
      </trkpt>
      <trkpt lat="45.45849" lon="6.22678">
        <ele>1536</ele>
        <time>2010-01-01T00:00:31Z</time>
      </trkpt>
      <trkpt lat="45.45837" lon="6.22673">
        <ele>1536</ele>
        <time>2010-01-01T00:00:34Z</time>
      </trkpt>
      <trkpt lat="45.45816" lon="6.22657">
        <ele>1536</ele>
        <time>2010-01-01T00:00:40Z</time>
      </trkpt>
      <trkpt lat="45.45793" lon="6.22605">
        <ele>1542</ele>
        <time>2010-01-01T00:00:50Z</time>
      </trkpt>
      <trkpt lat="45.45776" lon="6.22576">
        <ele>1545</ele>
        <time>2010-01-01T00:00:57Z</time>
      </trkpt>
      <trkpt lat="45.45756" lon="6.22552">
        <ele>1553</ele>
        <time>2010-01-01T00:01:03Z</time>
      </trkpt>
      <trkpt lat="45.45755" lon="6.22542">
        <ele>1557</ele>
        <time>2010-01-01T00:01:05Z</time>
      </trkpt>
      <trkpt lat="45.45762" lon="6.22537">
        <ele>1559</ele>
        <time>2010-01-01T00:01:07Z</time>
      </trkpt>
      <trkpt lat="45.4577" lon="6.22537">
        <ele>1560</ele>
        <time>2010-01-01T00:01:09Z</time>
      </trkpt>
      <trkpt lat="45.45782" lon="6.2253">
        <ele>1564</ele>
        <time>2010-01-01T00:01:12Z</time>
      </trkpt>
      <trkpt lat="45.45806" lon="6.22529">
        <ele>1568</ele>
        <time>2010-01-01T00:01:18Z</time>
      </trkpt>
      <trkpt lat="45.45807" lon="6.2252">
        <ele>1572</ele>
        <time>2010-01-01T00:01:20Z</time>
      </trkpt>
      <trkpt lat="45.45784" lon="6.22481">
        <ele>1583</ele>
        <time>2010-01-01T00:01:29Z</time>
      </trkpt>
      <trkpt lat="45.45772" lon="6.22452">
        <ele>1587</ele>
        <time>2010-01-01T00:01:35Z</time>
      </trkpt>
      <trkpt lat="45.45762" lon="6.2244">
        <ele>1588</ele>
        <time>2010-01-01T00:01:38Z</time>
      </trkpt>
      <trkpt lat="45.45748" lon="6.22441">
        <ele>1585</ele>
        <time>2010-01-01T00:01:41Z</time>
      </trkpt>
      <trkpt lat="45.4571" lon="6.22403">
        <ele>1591</ele>
        <time>2010-01-01T00:01:53Z</time>
      </trkpt>
      <trkpt lat="45.45697" lon="6.22393">
        <ele>1595</ele>
        <time>2010-01-01T00:01:57Z</time>
      </trkpt>
      <trkpt lat="45.4568" lon="6.22388">
        <ele>1595</ele>
        <time>2010-01-01T00:02:01Z</time>
      </trkpt>
      <trkpt lat="45.45665" lon="6.22385">
        <ele>1595</ele>
        <time>2010-01-01T00:02:05Z</time>
      </trkpt>
      <trkpt lat="45.45651" lon="6.22374">
        <ele>1598</ele>
        <time>2010-01-01T00:02:09Z</time>
      </trkpt>
      <trkpt lat="45.45643" lon="6.22365">
        <ele>1601</ele>
        <time>2010-01-01T00:02:11Z</time>
      </trkpt>
      <trkpt lat="45.45631" lon="6.22356">
        <ele>1603</ele>
        <time>2010-01-01T00:02:15Z</time>
      </trkpt>
      <trkpt lat="45.45621" lon="6.22352">
        <ele>1604</ele>
        <time>2010-01-01T00:02:17Z</time>
      </trkpt>
      <trkpt lat="45.4561" lon="6.22352">
        <ele>1604</ele>
        <time>2010-01-01T00:02:20Z</time>
      </trkpt>
      <trkpt lat="45.45601" lon="6.22358">
        <ele>1603</ele>
        <time>2010-01-01T00:02:22Z</time>
      </trkpt>
      <trkpt lat="45.45536" lon="6.22356">
        <ele>1618</ele>
        <time>2010-01-01T00:02:39Z</time>
      </trkpt>
      <trkpt lat="45.45531" lon="6.22349">
        <ele>1621</ele>
        <time>2010-01-01T00:02:40Z</time>
      </trkpt>
      <trkpt lat="45.45529" lon="6.22342">
        <ele>1624</ele>
        <time>2010-01-01T00:02:42Z</time>
      </trkpt>
      <trkpt lat="45.45509" lon="6.22329">
        <ele>1627</ele>
        <time>2010-01-01T00:02:47Z</time>
      </trkpt>
      <trkpt lat="45.45495" lon="6.22295">
        <ele>1634</ele>
        <time>2010-01-01T00:02:54Z</time>
      </trkpt>
      <trkpt lat="45.45485" lon="6.22284">
        <ele>1635</ele>
        <time>2010-01-01T00:02:57Z</time>
      </trkpt>
      <trkpt lat="45.45463" lon="6.22254">
        <ele>1642</ele>
        <time>2010-01-01T00:03:05Z</time>
      </trkpt>
      <trkpt lat="45.45446" lon="6.22225">
        <ele>1650</ele>
        <time>2010-01-01T00:03:11Z</time>
      </trkpt>
      <trkpt lat="45.45429" lon="6.22208">
        <ele>1653</ele>
        <time>2010-01-01T00:03:16Z</time>
      </trkpt>
      <trkpt lat="45.45407" lon="6.2219">
        <ele>1658</ele>
        <time>2010-01-01T00:03:23Z</time>
      </trkpt>
      <trkpt lat="45.45381" lon="6.22189">
        <ele>1658</ele>
        <time>2010-01-01T00:03:29Z</time>
      </trkpt>
      <trkpt lat="45.45367" lon="6.22191">
        <ele>1658</ele>
        <time>2010-01-01T00:03:33Z</time>
      </trkpt>
      <trkpt lat="45.45356" lon="6.22189">
        <ele>1660</ele>
        <time>2010-01-01T00:03:35Z</time>
      </trkpt>
      <trkpt lat="45.45328" lon="6.22165">
        <ele>1675</ele>
        <time>2010-01-01T00:03:44Z</time>
      </trkpt>
      <trkpt lat="45.45316" lon="6.22158">
        <ele>1678</ele>
        <time>2010-01-01T00:03:47Z</time>
      </trkpt>
      <trkpt lat="45.45277" lon="6.22158">
        <ele>1682</ele>
        <time>2010-01-01T00:03:57Z</time>
      </trkpt>
      <trkpt lat="45.4522" lon="6.22173">
        <ele>1694</ele>
        <time>2010-01-01T00:04:11Z</time>
      </trkpt>
      <trkpt lat="45.45209" lon="6.22184">
        <ele>1696</ele>
        <time>2010-01-01T00:04:14Z</time>
      </trkpt>
      <trkpt lat="45.45201" lon="6.222">
        <ele>1697</ele>
        <time>2010-01-01T00:04:18Z</time>
      </trkpt>
      <trkpt lat="45.45187" lon="6.22182">
        <ele>1706</ele>
        <time>2010-01-01T00:04:22Z</time>
      </trkpt>
      <trkpt lat="45.45178" lon="6.22191">
        <ele>1711</ele>
        <time>2010-01-01T00:04:25Z</time>
      </trkpt>
      <trkpt lat="45.45166" lon="6.22212">
        <ele>1715</ele>
        <time>2010-01-01T00:04:30Z</time>
      </trkpt>
      <trkpt lat="45.45156" lon="6.22234">
        <ele>1718</ele>
        <time>2010-01-01T00:04:34Z</time>
      </trkpt>
      <trkpt lat="45.4515" lon="6.22292">
        <ele>1726</ele>
        <time>2010-01-01T00:04:45Z</time>
      </trkpt>
      <trkpt lat="45.45151" lon="6.22319">
        <ele>1727</ele>
        <time>2010-01-01T00:04:49Z</time>
      </trkpt>
      <trkpt lat="45.45146" lon="6.22354">
        <ele>1732</ele>
        <time>2010-01-01T00:04:56Z</time>
      </trkpt>
      <trkpt lat="45.45136" lon="6.22378">
        <ele>1741</ele>
        <time>2010-01-01T00:05:01Z</time>
      </trkpt>
      <trkpt lat="45.45128" lon="6.22394">
        <ele>1748</ele>
        <time>2010-01-01T00:05:04Z</time>
      </trkpt>
      <trkpt lat="45.45126" lon="6.22413">
        <ele>1749</ele>
        <time>2010-01-01T00:05:07Z</time>
      </trkpt>
      <trkpt lat="45.45129" lon="6.22445">
        <ele>1744</ele>
        <time>2010-01-01T00:05:13Z</time>
      </trkpt>
      <trkpt lat="45.45121" lon="6.22456">
        <ele>1747</ele>
        <time>2010-01-01T00:05:16Z</time>
      </trkpt>
      <trkpt lat="45.45103" lon="6.22459">
        <ele>1756</ele>
        <time>2010-01-01T00:05:20Z</time>
      </trkpt>
      <trkpt lat="45.45066" lon="6.22459">
        <ele>1765</ele>
        <time>2010-01-01T00:05:29Z</time>
      </trkpt>
      <trkpt lat="45.45039" lon="6.22463">
        <ele>1762</ele>
        <time>2010-01-01T00:05:36Z</time>
      </trkpt>
      <trkpt lat="45.44991" lon="6.22457">
        <ele>1756</ele>
        <time>2010-01-01T00:05:48Z</time>
      </trkpt>
      <trkpt lat="45.44978" lon="6.22447">
        <ele>1756</ele>
        <time>2010-01-01T00:05:52Z</time>
      </trkpt>
      <trkpt lat="45.44965" lon="6.22434">
        <ele>1756</ele>
        <time>2010-01-01T00:05:56Z</time>
      </trkpt>
      <trkpt lat="45.44939" lon="6.22397">
        <ele>1758</ele>
        <time>2010-01-01T00:06:05Z</time>
      </trkpt>
      <trkpt lat="45.44925" lon="6.2237">
        <ele>1760</ele>
        <time>2010-01-01T00:06:11Z</time>
      </trkpt>
      <trkpt lat="45.44909" lon="6.22349">
        <ele>1760</ele>
        <time>2010-01-01T00:06:16Z</time>
      </trkpt>
      <trkpt lat="45.44903" lon="6.22317">
        <ele>1767</ele>
        <time>2010-01-01T00:06:22Z</time>
      </trkpt>
      <trkpt lat="45.44897" lon="6.22299">
        <ele>1770</ele>
        <time>2010-01-01T00:06:25Z</time>
      </trkpt>
      <trkpt lat="45.44895" lon="6.22282">
        <ele>1775</ele>
        <time>2010-01-01T00:06:28Z</time>
      </trkpt>
      <trkpt lat="45.44888" lon="6.22264">
        <ele>1777</ele>
        <time>2010-01-01T00:06:32Z</time>
      </trkpt>
      <trkpt lat="45.4488" lon="6.22253">
        <ele>1778</ele>
        <time>2010-01-01T00:06:35Z</time>
      </trkpt>
      <trkpt lat="45.44867" lon="6.22252">
        <ele>1775</ele>
        <time>2010-01-01T00:06:38Z</time>
      </trkpt>
      <trkpt lat="45.44854" lon="6.22245">
        <ele>1775</ele>
        <time>2010-01-01T00:06:42Z</time>
      </trkpt>
      <trkpt lat="45.44822" lon="6.22209">
        <ele>1781</ele>
        <time>2010-01-01T00:06:52Z</time>
      </trkpt>
      <trkpt lat="45.44769" lon="6.22159">
        <ele>1787</ele>
        <time>2010-01-01T00:07:07Z</time>
      </trkpt>
      <trkpt lat="45.4474" lon="6.2215">
        <ele>1789</ele>
        <time>2010-01-01T00:07:15Z</time>
      </trkpt>
      <trkpt lat="45.44709" lon="6.22145">
        <ele>1791</ele>
        <time>2010-01-01T00:07:23Z</time>
      </trkpt>
      <trkpt lat="45.44682" lon="6.22147">
        <ele>1791</ele>
        <time>2010-01-01T00:07:29Z</time>
      </trkpt>
      <trkpt lat="45.44629" lon="6.22143">
        <ele>1796</ele>
        <time>2010-01-01T00:07:43Z</time>
      </trkpt>
      <trkpt lat="45.44606" lon="6.22148">
        <ele>1796</ele>
        <time>2010-01-01T00:07:48Z</time>
      </trkpt>
      <trkpt lat="45.44588" lon="6.22144">
        <ele>1798</ele>
        <time>2010-01-01T00:07:53Z</time>
      </trkpt>
      <trkpt lat="45.44578" lon="6.22136">
        <ele>1800</ele>
        <time>2010-01-01T00:07:56Z</time>
      </trkpt>
      <trkpt lat="45.44569" lon="6.2214">
        <ele>1799</ele>
        <time>2010-01-01T00:07:58Z</time>
      </trkpt>
      <trkpt lat="45.44562" lon="6.22139">
        <ele>1799</ele>
        <time>2010-01-01T00:08:00Z</time>
      </trkpt>
      <trkpt lat="45.44551" lon="6.22128">
        <ele>1800</ele>
        <time>2010-01-01T00:08:03Z</time>
      </trkpt>
      <trkpt lat="45.44532" lon="6.22121">
        <ele>1802</ele>
        <time>2010-01-01T00:08:08Z</time>
      </trkpt>
      <trkpt lat="45.4452" lon="6.22115">
        <ele>1804</ele>
        <time>2010-01-01T00:08:11Z</time>
      </trkpt>
      <trkpt lat="45.44504" lon="6.22114">
        <ele>1805</ele>
        <time>2010-01-01T00:08:15Z</time>
      </trkpt>
      <trkpt lat="45.44503" lon="6.22114">
        <ele>1805</ele>
        <time>2010-01-01T00:08:15Z</time>
      </trkpt>
      <trkpt lat="45.44493" lon="6.22114">
        <ele>1806</ele>
        <time>2010-01-01T00:08:18Z</time>
      </trkpt>
      <trkpt lat="45.44462" lon="6.22095">
        <ele>1814</ele>
        <time>2010-01-01T00:08:26Z</time>
      </trkpt>
      <trkpt lat="45.44448" lon="6.22089">
        <ele>1816</ele>
        <time>2010-01-01T00:08:30Z</time>
      </trkpt>
      <trkpt lat="45.44439" lon="6.2208">
        <ele>1820</ele>
        <time>2010-01-01T00:08:33Z</time>
      </trkpt>
      <trkpt lat="45.44412" lon="6.22083">
        <ele>1823</ele>
        <time>2010-01-01T00:08:39Z</time>
      </trkpt>
      <trkpt lat="45.44397" lon="6.22097">
        <ele>1823</ele>
        <time>2010-01-01T00:08:44Z</time>
      </trkpt>
      <trkpt lat="45.44393" lon="6.22107">
        <ele>1821</ele>
        <time>2010-01-01T00:08:46Z</time>
      </trkpt>
      <trkpt lat="45.44393" lon="6.22114">
        <ele>1819</ele>
        <time>2010-01-01T00:08:47Z</time>
      </trkpt>
      <trkpt lat="45.44385" lon="6.22132">
        <ele>1816</ele>
        <time>2010-01-01T00:08:51Z</time>
      </trkpt>
      <trkpt lat="45.44381" lon="6.22135">
        <ele>1816</ele>
        <time>2010-01-01T00:08:52Z</time>
      </trkpt>
      <trkpt lat="45.44376" lon="6.22142">
        <ele>1815</ele>
        <time>2010-01-01T00:08:54Z</time>
      </trkpt>
      <trkpt lat="45.44362" lon="6.22149">
        <ele>1815</ele>
        <time>2010-01-01T00:08:57Z</time>
      </trkpt>
      <trkpt lat="45.44335" lon="6.22153">
        <ele>1814</ele>
        <time>2010-01-01T00:09:04Z</time>
      </trkpt>
      <trkpt lat="45.44324" lon="6.22158">
        <ele>1813</ele>
        <time>2010-01-01T00:09:07Z</time>
      </trkpt>
      <trkpt lat="45.44312" lon="6.22159">
        <ele>1814</ele>
        <time>2010-01-01T00:09:10Z</time>
      </trkpt>
      <trkpt lat="45.44303" lon="6.22163">
        <ele>1813</ele>
        <time>2010-01-01T00:09:12Z</time>
      </trkpt>
      <trkpt lat="45.44279" lon="6.22184">
        <ele>1808</ele>
        <time>2010-01-01T00:09:19Z</time>
      </trkpt>
      <trkpt lat="45.44271" lon="6.22183">
        <ele>1809</ele>
        <time>2010-01-01T00:09:21Z</time>
      </trkpt>
      <trkpt lat="45.4426" lon="6.22191">
        <ele>1807</ele>
        <time>2010-01-01T00:09:24Z</time>
      </trkpt>
      <trkpt lat="45.44248" lon="6.22195">
        <ele>1807</ele>
        <time>2010-01-01T00:09:28Z</time>
      </trkpt>
      <trkpt lat="45.44242" lon="6.22194">
        <ele>1807</ele>
        <time>2010-01-01T00:09:29Z</time>
      </trkpt>
      <trkpt lat="45.44234" lon="6.22186">
        <ele>1809</ele>
        <time>2010-01-01T00:09:31Z</time>
      </trkpt>
      <trkpt lat="45.44229" lon="6.22185">
        <ele>1810</ele>
        <time>2010-01-01T00:09:33Z</time>
      </trkpt>
      <trkpt lat="45.44213" lon="6.22189">
        <ele>1809</ele>
        <time>2010-01-01T00:09:37Z</time>
      </trkpt>
      <trkpt lat="45.442" lon="6.22214">
        <ele>1800</ele>
        <time>2010-01-01T00:09:42Z</time>
      </trkpt>
      <trkpt lat="45.44195" lon="6.22218">
        <ele>1799</ele>
        <time>2010-01-01T00:09:44Z</time>
      </trkpt>
      <trkpt lat="45.44173" lon="6.22224">
        <ele>1796</ele>
        <time>2010-01-01T00:09:49Z</time>
      </trkpt>
      <trkpt lat="45.4416" lon="6.22224">
        <ele>1796</ele>
        <time>2010-01-01T00:09:52Z</time>
      </trkpt>
      <trkpt lat="45.4412" lon="6.22214">
        <ele>1800</ele>
        <time>2010-01-01T00:10:03Z</time>
      </trkpt>
      <trkpt lat="45.44097" lon="6.22212">
        <ele>1801</ele>
        <time>2010-01-01T00:10:08Z</time>
      </trkpt>
      <trkpt lat="45.44077" lon="6.22192">
        <ele>1804</ele>
        <time>2010-01-01T00:10:14Z</time>
      </trkpt>
      <trkpt lat="45.44058" lon="6.2218">
        <ele>1804</ele>
        <time>2010-01-01T00:10:19Z</time>
      </trkpt>
      <trkpt lat="45.44031" lon="6.22146">
        <ele>1807</ele>
        <time>2010-01-01T00:10:28Z</time>
      </trkpt>
      <trkpt lat="45.44028" lon="6.2214">
        <ele>1808</ele>
        <time>2010-01-01T00:10:30Z</time>
      </trkpt>
      <trkpt lat="45.43995" lon="6.22105">
        <ele>1810</ele>
        <time>2010-01-01T00:10:40Z</time>
      </trkpt>
      <trkpt lat="45.43982" lon="6.22085">
        <ele>1811</ele>
        <time>2010-01-01T00:10:45Z</time>
      </trkpt>
      <trkpt lat="45.43954" lon="6.22074">
        <ele>1811</ele>
        <time>2010-01-01T00:10:52Z</time>
      </trkpt>
      <trkpt lat="45.43932" lon="6.22056">
        <ele>1812</ele>
        <time>2010-01-01T00:10:58Z</time>
      </trkpt>
      <trkpt lat="45.43924" lon="6.22052">
        <ele>1812</ele>
        <time>2010-01-01T00:11:00Z</time>
      </trkpt>
      <trkpt lat="45.43909" lon="6.22041">
        <ele>1813</ele>
        <time>2010-01-01T00:11:05Z</time>
      </trkpt>
      <trkpt lat="45.43884" lon="6.22043">
        <ele>1810</ele>
        <time>2010-01-01T00:11:11Z</time>
      </trkpt>
      <trkpt lat="45.43873" lon="6.22037">
        <ele>1811</ele>
        <time>2010-01-01T00:11:14Z</time>
      </trkpt>
      <trkpt lat="45.43848" lon="6.22009">
        <ele>1816</ele>
        <time>2010-01-01T00:11:22Z</time>
      </trkpt>
      <trkpt lat="45.4383" lon="6.21994">
        <ele>1817</ele>
        <time>2010-01-01T00:11:27Z</time>
      </trkpt>
      <trkpt lat="45.43788" lon="6.21969">
        <ele>1809</ele>
        <time>2010-01-01T00:11:38Z</time>
      </trkpt>
      <trkpt lat="45.43772" lon="6.21965">
        <ele>1806</ele>
        <time>2010-01-01T00:11:42Z</time>
      </trkpt>
      <trkpt lat="45.43753" lon="6.21949">
        <ele>1805</ele>
        <time>2010-01-01T00:11:48Z</time>
      </trkpt>
      <trkpt lat="45.43745" lon="6.2195">
        <ele>1805</ele>
        <time>2010-01-01T00:11:50Z</time>
      </trkpt>
      <trkpt lat="45.43742" lon="6.21946">
        <ele>1806</ele>
        <time>2010-01-01T00:11:51Z</time>
      </trkpt>
      <trkpt lat="45.43733" lon="6.21943">
        <ele>1808</ele>
        <time>2010-01-01T00:11:53Z</time>
      </trkpt>
      <trkpt lat="45.43719" lon="6.21917">
        <ele>1815</ele>
        <time>2010-01-01T00:11:59Z</time>
      </trkpt>
      <trkpt lat="45.43693" lon="6.21898">
        <ele>1819</ele>
        <time>2010-01-01T00:12:06Z</time>
      </trkpt>
      <trkpt lat="45.43668" lon="6.21843">
        <ele>1827</ele>
        <time>2010-01-01T00:12:17Z</time>
      </trkpt>
      <trkpt lat="45.43657" lon="6.21827">
        <ele>1827</ele>
        <time>2010-01-01T00:12:21Z</time>
      </trkpt>
      <trkpt lat="45.43559" lon="6.21647">
        <ele>1860</ele>
        <time>2010-01-01T00:13:01Z</time>
      </trkpt>
      <trkpt lat="45.43541" lon="6.21606">
        <ele>1867</ele>
        <time>2010-01-01T00:13:10Z</time>
      </trkpt>
      <trkpt lat="45.43523" lon="6.21578">
        <ele>1871</ele>
        <time>2010-01-01T00:13:16Z</time>
      </trkpt>
      <trkpt lat="45.43491" lon="6.21537">
        <ele>1878</ele>
        <time>2010-01-01T00:13:27Z</time>
      </trkpt>
      <trkpt lat="45.43464" lon="6.2151">
        <ele>1880</ele>
        <time>2010-01-01T00:13:35Z</time>
      </trkpt>
      <trkpt lat="45.43438" lon="6.21473">
        <ele>1885</ele>
        <time>2010-01-01T00:13:44Z</time>
      </trkpt>
      <trkpt lat="45.43434" lon="6.21466">
        <ele>1887</ele>
        <time>2010-01-01T00:13:46Z</time>
      </trkpt>
      <trkpt lat="45.43434" lon="6.21455">
        <ele>1889</ele>
        <time>2010-01-01T00:13:48Z</time>
      </trkpt>
      <trkpt lat="45.43432" lon="6.21445">
        <ele>1891</ele>
        <time>2010-01-01T00:13:50Z</time>
      </trkpt>
      <trkpt lat="45.43427" lon="6.21443">
        <ele>1892</ele>
        <time>2010-01-01T00:13:51Z</time>
      </trkpt>
      <trkpt lat="45.43422" lon="6.21431">
        <ele>1895</ele>
        <time>2010-01-01T00:13:53Z</time>
      </trkpt>
      <trkpt lat="45.43416" lon="6.21429">
        <ele>1895</ele>
        <time>2010-01-01T00:13:55Z</time>
      </trkpt>
      <trkpt lat="45.43388" lon="6.21403">
        <ele>1901</ele>
        <time>2010-01-01T00:14:03Z</time>
      </trkpt>
      <trkpt lat="45.43369" lon="6.21395">
        <ele>1904</ele>
        <time>2010-01-01T00:14:08Z</time>
      </trkpt>
      <trkpt lat="45.43365" lon="6.21398">
        <ele>1903</ele>
        <time>2010-01-01T00:14:09Z</time>
      </trkpt>
      <trkpt lat="45.43356" lon="6.21394">
        <ele>1905</ele>
        <time>2010-01-01T00:14:12Z</time>
      </trkpt>
      <trkpt lat="45.43349" lon="6.2138">
        <ele>1910</ele>
        <time>2010-01-01T00:14:15Z</time>
      </trkpt>
      <trkpt lat="45.4333" lon="6.2137">
        <ele>1914</ele>
        <time>2010-01-01T00:14:20Z</time>
      </trkpt>
      <trkpt lat="45.43311" lon="6.21375">
        <ele>1916</ele>
        <time>2010-01-01T00:14:24Z</time>
      </trkpt>
      <trkpt lat="45.43288" lon="6.21377">
        <ele>1917</ele>
        <time>2010-01-01T00:14:30Z</time>
      </trkpt>
      <trkpt lat="45.43269" lon="6.21357">
        <ele>1927</ele>
        <time>2010-01-01T00:14:36Z</time>
      </trkpt>
      <trkpt lat="45.43251" lon="6.21304">
        <ele>1936</ele>
        <time>2010-01-01T00:14:46Z</time>
      </trkpt>
      <trkpt lat="45.43206" lon="6.21302">
        <ele>1937</ele>
        <time>2010-01-01T00:14:57Z</time>
      </trkpt>
      <trkpt lat="45.4319" lon="6.21312">
        <ele>1935</ele>
        <time>2010-01-01T00:15:02Z</time>
      </trkpt>
      <trkpt lat="45.43172" lon="6.21302">
        <ele>1940</ele>
        <time>2010-01-01T00:15:07Z</time>
      </trkpt>
      <trkpt lat="45.43165" lon="6.21288">
        <ele>1944</ele>
        <time>2010-01-01T00:15:10Z</time>
      </trkpt>
      <trkpt lat="45.43143" lon="6.21289">
        <ele>1948</ele>
        <time>2010-01-01T00:15:15Z</time>
      </trkpt>
      <trkpt lat="45.43124" lon="6.21302">
        <ele>1948</ele>
        <time>2010-01-01T00:15:20Z</time>
      </trkpt>
      <trkpt lat="45.43071" lon="6.21311">
        <ele>1951</ele>
        <time>2010-01-01T00:15:34Z</time>
      </trkpt>
      <trkpt lat="45.43004" lon="6.21265">
        <ele>1957</ele>
        <time>2010-01-01T00:15:52Z</time>
      </trkpt>
      <trkpt lat="45.42968" lon="6.21239">
        <ele>1965</ele>
        <time>2010-01-01T00:16:02Z</time>
      </trkpt>
      <trkpt lat="45.42956" lon="6.21241">
        <ele>1964</ele>
        <time>2010-01-01T00:16:05Z</time>
      </trkpt>
      <trkpt lat="45.42901" lon="6.21207">
        <ele>1974</ele>
        <time>2010-01-01T00:16:20Z</time>
      </trkpt>
      <trkpt lat="45.42874" lon="6.21175">
        <ele>1979</ele>
        <time>2010-01-01T00:16:29Z</time>
      </trkpt>
      <trkpt lat="45.42848" lon="6.21156">
        <ele>1986</ele>
        <time>2010-01-01T00:16:36Z</time>
      </trkpt>
      <trkpt lat="45.42805" lon="6.21144">
        <ele>1983</ele>
        <time>2010-01-01T00:16:47Z</time>
      </trkpt>
      <trkpt lat="45.42802" lon="6.21143">
        <ele>1982.41</ele>
      </trkpt>
      <trkpt lat="45.42791" lon="6.21137">
        <ele>1981.74</ele>
      </trkpt>
      <trkpt lat="45.4279" lon="6.21106">
        <ele>1977.407</ele>
      </trkpt>
      <trkpt lat="45.42777" lon="6.2106">
        <ele>1961.135</ele>
      </trkpt>
      <trkpt lat="45.4276" lon="6.21027">
        <ele>1947.631</ele>
      </trkpt>
      <trkpt lat="45.42754" lon="6.21001">
        <ele>1941.957</ele>
      </trkpt>
      <trkpt lat="45.42741" lon="6.20936">
        <ele>1934.34</ele>
      </trkpt>
      <trkpt lat="45.42718" lon="6.20813">
        <ele>1931.449</ele>
      </trkpt>
      <trkpt lat="45.42678" lon="6.20749">
        <ele>1937.537</ele>
      </trkpt>
      <trkpt lat="45.42644" lon="6.20689">
        <ele>1929.97</ele>
      </trkpt>
      <trkpt lat="45.4262" lon="6.20642">
        <ele>1917.522</ele>
      </trkpt>
      <trkpt lat="45.42577" lon="6.2056">
        <ele>1884.276</ele>
      </trkpt>
      <trkpt lat="45.42568" lon="6.20558">
        <ele>1878.924</ele>
      </trkpt>
      <trkpt lat="45.42548" lon="6.20535">
        <ele>1864.749</ele>
      </trkpt>
      <trkpt lat="45.42534" lon="6.20512">
        <ele>1857.825</ele>
      </trkpt>
      <trkpt lat="45.42526" lon="6.20495">
        <ele>1855.412</ele>
      </trkpt>
      <trkpt lat="45.42516" lon="6.20477">
        <ele>1853.131</ele>
      </trkpt>
      <trkpt lat="45.42512" lon="6.20433">
        <ele>1854.069</ele>
      </trkpt>
      <trkpt lat="45.42507" lon="6.20412">
        <ele>1848.834</ele>
      </trkpt>
      <trkpt lat="45.425" lon="6.20387">
        <ele>1841.04</ele>
      </trkpt>
      <trkpt lat="45.42493" lon="6.2037">
        <ele>1830.445</ele>
      </trkpt>
      <trkpt lat="45.4248" lon="6.20357">
        <ele>1817.042</ele>
      </trkpt>
      <trkpt lat="45.42465" lon="6.20353">
        <ele>1807.341</ele>
      </trkpt>
      <trkpt lat="45.42461" lon="6.20333">
        <ele>1802.081</ele>
      </trkpt>
      <trkpt lat="45.42461" lon="6.20308">
        <ele>1799.533</ele>
      </trkpt>
      <trkpt lat="45.42453" lon="6.20304">
        <ele>1796.354</ele>
      </trkpt>
      <trkpt lat="45.42442" lon="6.20283">
        <ele>1787.654</ele>
      </trkpt>
      <trkpt lat="45.42428" lon="6.20258">
        <ele>1771.097</ele>
      </trkpt>
      <trkpt lat="45.42416" lon="6.20238">
        <ele>1757.825</ele>
      </trkpt>
      <trkpt lat="45.42407" lon="6.20224">
        <ele>1751.769</ele>
      </trkpt>
      <trkpt lat="45.42415" lon="6.20209">
        <ele>1750.445</ele>
      </trkpt>
      <trkpt lat="45.42425" lon="6.20202">
        <ele>1754.959</ele>
      </trkpt>
      <trkpt lat="45.42436" lon="6.20194">
        <ele>1759.528</ele>
      </trkpt>
      <trkpt lat="45.42444" lon="6.20179">
        <ele>1757.576</ele>
      </trkpt>
      <trkpt lat="45.42447" lon="6.20158">
        <ele>1748.633</ele>
      </trkpt>
      <trkpt lat="45.42452" lon="6.20125">
        <ele>1736.123</ele>
      </trkpt>
      <trkpt lat="45.42457" lon="6.20091">
        <ele>1725.146</ele>
      </trkpt>
      <trkpt lat="45.42463" lon="6.20052">
        <ele>1715.448</ele>
      </trkpt>
      <trkpt lat="45.42464" lon="6.2002">
        <ele>1705.416</ele>
      </trkpt>
      <trkpt lat="45.42462" lon="6.20009">
        <ele>1700.501</ele>
      </trkpt>
      <trkpt lat="45.4245" lon="6.19991">
        <ele>1691.374</ele>
      </trkpt>
      <trkpt lat="45.42437" lon="6.19975">
        <ele>1684.111</ele>
      </trkpt>
      <trkpt lat="45.42431" lon="6.19954">
        <ele>1677.745</ele>
      </trkpt>
      <trkpt lat="45.42429" lon="6.19923">
        <ele>1666.906</ele>
      </trkpt>
      <trkpt lat="45.42424" lon="6.19908">
        <ele>1658.409</ele>
      </trkpt>
      <trkpt lat="45.42414" lon="6.19903">
        <ele>1653.241</ele>
      </trkpt>
      <trkpt lat="45.42399" lon="6.19905">
        <ele>1649.288</ele>
      </trkpt>
      <trkpt lat="45.42386" lon="6.19905">
        <ele>1644.832</ele>
      </trkpt>
      <trkpt lat="45.42379" lon="6.19896">
        <ele>1638.822</ele>
      </trkpt>
      <trkpt lat="45.42387" lon="6.19875">
        <ele>1630.496</ele>
      </trkpt>
      <trkpt lat="45.42393" lon="6.19857">
        <ele>1622.273</ele>
      </trkpt>
      <trkpt lat="45.42391" lon="6.19845">
        <ele>1616.435</ele>
      </trkpt>
      <trkpt lat="45.42373" lon="6.1986">
        <ele>1622.958</ele>
      </trkpt>
      <trkpt lat="45.42363" lon="6.19864">
        <ele>1624.446</ele>
      </trkpt>
      <trkpt lat="45.42343" lon="6.19865">
        <ele>1626.992</ele>
      </trkpt>
      <trkpt lat="45.42324" lon="6.19874">
        <ele>1631.086</ele>
      </trkpt>
      <trkpt lat="45.42298" lon="6.1988">
        <ele>1636.817</ele>
      </trkpt>
      <trkpt lat="45.4228" lon="6.1989">
        <ele>1641.537</ele>
      </trkpt>
      <trkpt lat="45.42247" lon="6.19904">
        <ele>1646.419</ele>
      </trkpt>
      <trkpt lat="45.42227" lon="6.19912">
        <ele>1648.575</ele>
      </trkpt>
      <trkpt lat="45.42213" lon="6.19929">
        <ele>1650.76</ele>
      </trkpt>
      <trkpt lat="45.42197" lon="6.19928">
        <ele>1653.082</ele>
      </trkpt>
      <trkpt lat="45.42173" lon="6.19922">
        <ele>1657.507</ele>
      </trkpt>
      <trkpt lat="45.42153" lon="6.19901">
        <ele>1658.222</ele>
      </trkpt>
      <trkpt lat="45.42132" lon="6.19883">
        <ele>1660.995</ele>
      </trkpt>
      <trkpt lat="45.4209" lon="6.19872">
        <ele>1668.98</ele>
      </trkpt>
      <trkpt lat="45.42063" lon="6.19871">
        <ele>1675.229</ele>
      </trkpt>
      <trkpt lat="45.42036" lon="6.19869">
        <ele>1681.022</ele>
      </trkpt>
      <trkpt lat="45.42009" lon="6.19868">
        <ele>1684.752</ele>
      </trkpt>
      <trkpt lat="45.41971" lon="6.19861">
        <ele>1688.214</ele>
      </trkpt>
      <trkpt lat="45.41926" lon="6.1985">
        <ele>1697.146</ele>
      </trkpt>
      <trkpt lat="45.41881" lon="6.1982">
        <ele>1708.402</ele>
      </trkpt>
      <trkpt lat="45.41848" lon="6.19789">
        <ele>1717.985</ele>
      </trkpt>
      <trkpt lat="45.41812" lon="6.19734">
        <ele>1732.463</ele>
      </trkpt>
      <trkpt lat="45.41781" lon="6.19683">
        <ele>1746.327</ele>
      </trkpt>
      <trkpt lat="45.41735" lon="6.19611">
        <ele>1760.065</ele>
      </trkpt>
      <trkpt lat="45.41673" lon="6.19518">
        <ele>1778.128</ele>
      </trkpt>
      <trkpt lat="45.41627" lon="6.19459">
        <ele>1788.953</ele>
      </trkpt>
      <trkpt lat="45.41596" lon="6.19429">
        <ele>1796.094</ele>
      </trkpt>
      <trkpt lat="45.41562" lon="6.19404">
        <ele>1801.48</ele>
      </trkpt>
      <trkpt lat="45.41532" lon="6.19402">
        <ele>1802.824</ele>
      </trkpt>
      <trkpt lat="45.41518" lon="6.19385">
        <ele>1807.71</ele>
      </trkpt>
      <trkpt lat="45.41517" lon="6.19378">
        <ele>1808.817</ele>
      </trkpt>
      <trkpt lat="45.41493" lon="6.1936">
        <ele>1816.554</ele>
      </trkpt>
      <trkpt lat="45.41486" lon="6.19355">
        <ele>1819.717</ele>
      </trkpt>
      <trkpt lat="45.41474" lon="6.1935">
        <ele>1824.82</ele>
      </trkpt>
      <trkpt lat="45.41454" lon="6.19339">
        <ele>1834.501</ele>
      </trkpt>
      <trkpt lat="45.41435" lon="6.19325">
        <ele>1842.007</ele>
      </trkpt>
      <trkpt lat="45.41418" lon="6.1932">
        <ele>1846.995</ele>
      </trkpt>
      <trkpt lat="45.41382" lon="6.19288">
        <ele>1858.875</ele>
      </trkpt>
      <trkpt lat="45.41363" lon="6.1928">
        <ele>1864.277</ele>
      </trkpt>
      <trkpt lat="45.41344" lon="6.19275">
        <ele>1868.863</ele>
      </trkpt>
      <trkpt lat="45.41311" lon="6.19261">
        <ele>1875.608</ele>
      </trkpt>
      <trkpt lat="45.41302" lon="6.19258">
        <ele>1877.263</ele>
      </trkpt>
      <trkpt lat="45.41286" lon="6.19242">
        <ele>1880.363</ele>
      </trkpt>
      <trkpt lat="45.41256" lon="6.19207">
        <ele>1887.737</ele>
      </trkpt>
      <trkpt lat="45.41242" lon="6.1918">
        <ele>1894.817</ele>
      </trkpt>
      <trkpt lat="45.4121" lon="6.19151">
        <ele>1902.804</ele>
      </trkpt>
      <trkpt lat="45.4119" lon="6.19129">
        <ele>1907.41</ele>
      </trkpt>
      <trkpt lat="45.41177" lon="6.19105">
        <ele>1912.804</ele>
      </trkpt>
      <trkpt lat="45.41173" lon="6.19092">
        <ele>1915.946</ele>
      </trkpt>
      <trkpt lat="45.41166" lon="6.19068">
        <ele>1921.802</ele>
      </trkpt>
      <trkpt lat="45.41164" lon="6.19057">
        <ele>1924.119</ele>
      </trkpt>
      <trkpt lat="45.41154" lon="6.19038">
        <ele>1929.442</ele>
      </trkpt>
      <trkpt lat="45.41149" lon="6.19029">
        <ele>1931.37</ele>
      </trkpt>
      <trkpt lat="45.41143" lon="6.1901">
        <ele>1935.775</ele>
      </trkpt>
      <trkpt lat="45.4114" lon="6.19003">
        <ele>1937.282</ele>
      </trkpt>
      <trkpt lat="45.41133" lon="6.1899">
        <ele>1941.182</ele>
      </trkpt>
      <trkpt lat="45.41133" lon="6.18967">
        <ele>1946.659</ele>
      </trkpt>
      <trkpt lat="45.41129" lon="6.18954">
        <ele>1951.523</ele>
      </trkpt>
      <trkpt lat="45.41126" lon="6.18947">
        <ele>1953.926</ele>
      </trkpt>
      <trkpt lat="45.41122" lon="6.18941">
        <ele>1956.303</ele>
      </trkpt>
      <trkpt lat="45.41121" lon="6.1893">
        <ele>1959.585</ele>
      </trkpt>
      <trkpt lat="45.41124" lon="6.18918">
        <ele>1963.221</ele>
      </trkpt>
      <trkpt lat="45.41124" lon="6.18916">
        <ele>1963.802</ele>
      </trkpt>
      <trkpt lat="45.41114" lon="6.18898">
        <ele>1968.061</ele>
      </trkpt>
      <trkpt lat="45.41115" lon="6.18892">
        <ele>1969.489</ele>
      </trkpt>
      <trkpt lat="45.41115" lon="6.18879">
        <ele>1971.96</ele>
      </trkpt>
      <trkpt lat="45.41115" lon="6.18875">
        <ele>1972.748</ele>
      </trkpt>
      <trkpt lat="45.4111" lon="6.1886">
        <ele>1975.412</ele>
      </trkpt>
      <trkpt lat="45.4111" lon="6.18844">
        <ele>1977.645</ele>
      </trkpt>
      <trkpt lat="45.4111" lon="6.18837">
        <ele>1977.645</ele>
      </trkpt>
      <trkpt lat="45.41069" lon="6.18788">
        <ele>1977.7741875</ele>
      </trkpt>
      <trkpt lat="45.41012" lon="6.18803">
        <ele>1977.7903359375</ele>
      </trkpt>
      <trkpt lat="45.40918" lon="6.18841">
        <ele>1977.806484375</ele>
      </trkpt>
      <trkpt lat="45.40903" lon="6.1873">
        <ele>1977.8226328125</ele>
      </trkpt>
      <trkpt lat="45.40848" lon="6.18646">
        <ele>1977.83878125</ele>
      </trkpt>
      <trkpt lat="45.40814" lon="6.18633">
        <ele>1977.903375</ele>
      </trkpt>
      <trkpt lat="45.40819" lon="6.1859">
        <ele>1978.16175</ele>
      </trkpt>
      <trkpt lat="45.40781" lon="6.18618">
        <ele>1978.6785</ele>
      </trkpt>
      <trkpt lat="45.40777" lon="6.18537">
        <ele>1979.712</ele>
      </trkpt>
    </trkseg>
  </trk>
</gpx>